Time;durP1;ratioP1;P1;durP2;ratioP2;P2;SDS_P1;SDS_P2;PMS_P1;PMS_P2;Temp;Humidity;BMP_temperature;BMP_pressure;BME280_temperature;BME280_humidity;BME280_pressure;Samples;Min_cycle;Max_cycle;Signal;HPM_P1;HPM_P2
2022/10/04 00:00:45;;;;;;;10.97;2.60;;;12.90;99.90;;;;;;5008697;28;20486;-47
2022/10/04 00:03:24;;;;;;;11.10;2.27;;;12.90;99.90;;;;;;5007931;28;21115;-46
2022/10/04 00:05:55;;;;;;;15.70;2.43;;;12.90;99.90;;;;;;5012470;28;21035;-46
2022/10/04 00:08:27;;;;;;;7.70;2.60;;;12.90;99.90;;;;;;5014846;28;20555;-46
2022/10/04 00:11:03;;;;;;;13.73;3.97;;;12.90;99.90;;;;;;5015510;28;20570;-47
2022/10/04 00:13:31;;;;;;;9.50;2.70;;;12.90;99.90;;;;;;5016421;28;20556;-46
2022/10/04 00:15:58;;;;;;;9.53;2.17;;;12.90;99.90;;;;;;5007585;28;20555;-47
2022/10/04 00:18:31;;;;;;;5.10;2.20;;;12.90;99.90;;;;;;5010202;28;20551;-46
2022/10/04 00:21:03;;;;;;;11.40;2.27;;;12.90;99.90;;;;;;5018712;28;20464;-46
2022/10/04 00:23:42;;;;;;;6.43;1.83;;;12.90;99.90;;;;;;5012412;28;20558;-46
2022/10/04 00:26:15;;;;;;;5.97;2.77;;;12.90;99.90;;;;;;5011427;28;20487;-46
2022/10/04 00:28:44;;;;;;;7.53;2.10;;;12.90;99.90;;;;;;5009102;28;20464;-47
2022/10/04 00:31:17;;;;;;;7.13;2.30;;;12.90;99.90;;;;;;5012409;28;20483;-47
2022/10/04 00:33:46;;;;;;;9.30;2.30;;;12.90;99.90;;;;;;5005589;28;20516;-46
2022/10/04 00:36:38;;;;;;;13.13;2.60;;;12.90;99.90;;;;;;5012421;28;20554;-46
2022/10/04 00:39:36;;;;;;;11.60;2.73;;;12.90;99.90;;;;;;5015814;28;20453;-46
2022/10/04 00:42:29;;;;;;;5.63;2.03;;;12.90;95.00;;;;;;5010639;28;20460;-46
2022/10/04 00:45:00;;;;;;;12.73;2.70;;;12.80;81.70;;;;;;5002802;28;21252;-46
2022/10/04 00:47:32;;;;;;;10.50;2.63;;;12.80;80.20;;;;;;5011116;28;20625;-46
2022/10/04 00:50:10;;;;;;;9.30;2.57;;;12.80;72.50;;;;;;5012372;28;20641;-46
2022/10/04 00:52:43;;;;;;;14.87;3.37;;;12.80;76.40;;;;;;5009730;28;20577;-46
2022/10/04 00:55:19;;;;;;;6.93;1.80;;;12.80;74.80;;;;;;5002528;28;20483;-47
2022/10/04 00:57:48;;;;;;;14.37;2.50;;;12.80;72.70;;;;;;5010541;28;20551;-47
2022/10/04 01:00:18;;;;;;;6.60;2.03;;;12.80;72.90;;;;;;5012144;28;20613;-46
2022/10/04 01:02:52;;;;;;;12.43;2.90;;;12.80;77.20;;;;;;5005845;28;20518;-46
2022/10/04 01:05:25;;;;;;;9.90;2.80;;;12.80;83.50;;;;;;5009765;28;20467;-46
2022/10/04 01:07:57;;;;;;;11.77;2.50;;;12.80;96.60;;;;;;5012051;28;21222;-47
2022/10/04 01:10:26;;;;;;;7.33;2.30;;;12.70;99.90;;;;;;5009900;28;20678;-46
2022/10/04 01:12:59;;;;;;;15.10;3.03;;;12.70;99.90;;;;;;5009473;28;20562;-46
2022/10/04 01:15:34;;;;;;;9.63;2.57;;;12.70;99.90;;;;;;5008106;28;20468;-47
2022/10/04 01:18:15;;;;;;;11.40;2.70;;;12.70;99.90;;;;;;5007065;28;20553;-46
2022/10/04 01:20:54;;;;;;;13.00;2.53;;;12.70;99.90;;;;;;5015073;28;20460;-46
2022/10/04 01:23:42;;;;;;;8.43;2.40;;;12.70;99.90;;;;;;5021895;28;20536;-46
2022/10/04 01:26:40;;;;;;;9.37;2.03;;;12.70;99.90;;;;;;5004867;28;20613;-47
2022/10/04 01:29:11;;;;;;;16.27;3.17;;;12.60;99.90;;;;;;5005706;28;20460;-46
2022/10/04 01:31:40;;;;;;;8.77;2.30;;;12.50;99.90;;;;;;5003439;28;20590;-47
2022/10/04 01:34:07;;;;;;;7.67;2.20;;;12.50;99.90;;;;;;5010319;28;21132;-46
2022/10/04 01:36:35;;;;;;;6.90;1.70;;;12.60;99.90;;;;;;5008614;28;20560;-45
2022/10/04 01:39:05;;;;;;;7.63;2.27;;;12.50;99.90;;;;;;5011953;28;20564;-46
2022/10/04 01:41:45;;;;;;;7.03;2.27;;;12.50;99.90;;;;;;5021428;28;20459;-46
2022/10/04 01:44:19;;;;;;;17.97;2.80;;;12.50;99.90;;;;;;5006344;28;20933;-47
2022/10/04 01:46:46;;;;;;;5.83;2.27;;;12.50;99.90;;;;;;5004772;28;20594;-46
2022/10/04 01:49:17;;;;;;;8.77;2.57;;;12.50;99.90;;;;;;5012805;28;20487;-47
2022/10/04 01:51:53;;;;;;;11.50;2.90;;;12.50;99.90;;;;;;5017490;28;20566;-47
2022/10/04 01:54:30;;;;;;;10.83;2.63;;;12.50;99.90;;;;;;5010124;28;20497;-47
2022/10/04 01:56:59;;;;;;;9.83;2.67;;;12.50;99.90;;;;;;5011317;28;20507;-46
2022/10/04 01:59:31;;;;;;;10.93;2.13;;;12.50;99.90;;;;;;5007283;28;20503;-47
2022/10/04 02:02:03;;;;;;;9.93;2.50;;;12.40;99.90;;;;;;5006044;28;20495;-45
2022/10/04 02:04:32;;;;;;;15.80;2.70;;;12.50;99.90;;;;;;5010436;28;20510;-47
2022/10/04 02:07:01;;;;;;;11.57;2.03;;;12.40;99.90;;;;;;5009643;28;20536;-45
2022/10/04 02:09:33;;;;;;;5.33;2.03;;;12.40;99.90;;;;;;5017199;28;20601;-47
2022/10/04 02:12:01;;;;;;;11.73;2.43;;;12.40;99.90;;;;;;5017606;28;20526;-47
2022/10/04 02:14:32;;;;;;;16.20;3.47;;;12.40;99.90;;;;;;5001999;28;20638;-47
2022/10/04 02:17:01;;;;;;;7.77;2.33;;;12.40;99.90;;;;;;5008498;28;20471;-47
2022/10/04 02:19:34;;;;;;;13.33;2.37;;;12.30;99.90;;;;;;5017565;28;20477;-46
2022/10/04 02:22:04;;;;;;;8.43;2.63;;;12.30;99.90;;;;;;5012533;28;20491;-48
2022/10/04 02:24:35;;;;;;;5.93;1.90;;;12.30;99.90;;;;;;5009456;28;20483;-47
2022/10/04 02:27:02;;;;;;;7.87;2.60;;;12.30;99.90;;;;;;5002830;28;20463;-46
2022/10/04 02:29:29;;;;;;;5.47;2.10;;;12.30;99.90;;;;;;5007378;28;20486;-46
2022/10/04 02:34:40;;;;;;;8.37;2.30;;;12.20;99.90;;;;;;5010732;28;20488;-46
2022/10/04 02:37:09;;;;;;;9.40;2.90;;;12.20;99.90;;;;;;5006382;28;20491;-47
2022/10/04 02:39:43;;;;;;;8.67;2.80;;;12.20;99.90;;;;;;5005518;28;20513;-47
2022/10/04 02:42:14;;;;;;;6.70;2.50;;;12.10;99.90;;;;;;5006316;28;20487;-47
2022/10/04 02:44:43;;;;;;;9.00;2.40;;;12.10;99.90;;;;;;5009883;28;20566;-47
2022/10/04 02:47:16;;;;;;;12.20;2.87;;;12.00;99.90;;;;;;5003005;28;21056;-46
2022/10/04 02:49:46;;;;;;;8.90;2.77;;;12.00;99.90;;;;;;5002078;28;21519;-46
2022/10/04 02:52:19;;;;;;;11.80;2.47;;;11.90;99.90;;;;;;5007606;28;20594;-46
2022/10/04 02:54:51;;;;;;;12.63;2.50;;;11.90;99.90;;;;;;5054365;22;21053;-51
2022/10/04 02:57:20;;;;;;;10.23;2.40;;;11.90;99.90;;;;;;5043751;28;20816;-50
2022/10/04 02:59:47;;;;;;;9.80;3.13;;;11.80;99.90;;;;;;5045338;28;21177;-51
2022/10/04 03:02:24;;;;;;;9.47;2.70;;;11.80;99.90;;;;;;5044980;28;20489;-50
2022/10/04 03:04:53;;;;;;;4.73;1.90;;;11.80;99.90;;;;;;5046618;28;20508;-51
2022/10/04 03:07:22;;;;;;;10.73;1.93;;;11.70;99.90;;;;;;5046415;28;20461;-51
2022/10/04 03:09:51;;;;;;;6.73;2.23;;;11.70;99.90;;;;;;5045365;28;20478;-56
2022/10/04 03:12:21;;;;;;;11.63;2.93;;;11.70;99.90;;;;;;5046505;28;21015;-50
2022/10/04 03:14:47;;;;;;;11.87;3.10;;;11.60;99.90;;;;;;5046895;28;20539;-51
2022/10/04 03:17:16;;;;;;;9.73;2.77;;;11.60;99.90;;;;;;5041373;28;21070;-51
2022/10/04 03:19:44;;;;;;;6.47;2.10;;;11.60;99.90;;;;;;5044979;28;20458;-51
2022/10/04 03:22:11;;;;;;;7.10;1.70;;;11.60;99.90;;;;;;5046785;28;20545;-50
2022/10/04 03:24:45;;;;;;;8.50;2.57;;;11.50;99.90;;;;;;5046851;28;21078;-51
2022/10/04 03:27:16;;;;;;;11.60;2.73;;;11.50;99.90;;;;;;5047227;28;20513;-50
2022/10/04 03:29:43;;;;;;;8.30;2.73;;;11.50;99.90;;;;;;5047624;28;20466;-51
2022/10/04 03:32:14;;;;;;;12.00;2.10;;;11.50;99.90;;;;;;5045094;28;21045;-50
2022/10/04 03:34:45;;;;;;;9.47;2.40;;;11.50;99.90;;;;;;5051841;28;20509;-51
2022/10/04 03:37:15;;;;;;;6.53;2.07;;;11.50;99.90;;;;;;5043865;28;20526;-51
2022/10/04 03:39:45;;;;;;;11.17;3.10;;;11.50;99.90;;;;;;5051479;28;20490;-51
2022/10/04 03:42:15;;;;;;;10.17;2.57;;;11.40;99.90;;;;;;5048906;28;20539;-50
2022/10/04 03:44:44;;;;;;;20.43;4.17;;;11.40;99.90;;;;;;5046183;28;20573;-50
2022/10/04 03:47:12;;;;;;;11.47;3.10;;;11.30;99.90;;;;;;5047719;28;20820;-51
2022/10/04 03:49:40;;;;;;;6.40;2.87;;;11.30;99.90;;;;;;5050289;28;20536;-50
2022/10/04 03:52:08;;;;;;;7.37;2.50;;;11.20;99.90;;;;;;5049503;28;20568;-51
2022/10/04 03:54:35;;;;;;;11.60;2.33;;;11.20;99.90;;;;;;5046420;28;20576;-51
2022/10/04 03:57:02;;;;;;;12.13;3.27;;;11.10;99.90;;;;;;5048151;28;20585;-50
2022/10/04 03:59:30;;;;;;;7.80;2.17;;;11.10;99.90;;;;;;5048016;28;20565;-50
2022/10/04 04:02:06;;;;;;;7.17;1.90;;;11.00;99.90;;;;;;5049506;28;20551;-51
2022/10/04 04:04:42;;;;;;;6.40;1.70;;;11.00;99.90;;;;;;5048738;28;20580;-51
2022/10/04 04:07:14;;;;;;;10.83;2.40;;;10.90;99.90;;;;;;5050497;28;20461;-51
2022/10/04 04:09:44;;;;;;;6.80;2.13;;;10.80;99.90;;;;;;5050942;28;20461;-51
2022/10/04 04:12:16;;;;;;;8.97;2.70;;;10.80;99.90;;;;;;5048016;28;20482;-51
2022/10/04 04:14:46;;;;;;;6.33;2.37;;;10.80;99.90;;;;;;5047360;28;20626;-51
2022/10/04 04:17:19;;;;;;;10.50;2.67;;;10.80;99.90;;;;;;5047662;28;20552;-51
2022/10/04 04:19:46;;;;;;;11.73;2.87;;;10.70;99.90;;;;;;5049769;28;20545;-51
2022/10/04 04:22:16;;;;;;;8.20;2.87;;;10.70;99.90;;;;;;5046559;28;20454;-51
2022/10/04 04:24:44;;;;;;;10.00;2.43;;;10.70;99.90;;;;;;5046053;28;20560;-51
2022/10/04 04:27:11;;;;;;;7.60;2.20;;;10.70;99.90;;;;;;5050113;28;20545;-51
2022/10/04 04:29:47;;;;;;;7.00;2.50;;;10.70;99.90;;;;;;5047436;28;21500;-50
2022/10/04 04:32:18;;;;;;;12.10;2.17;;;10.70;99.90;;;;;;5045524;28;20571;-51
2022/10/04 04:34:51;;;;;;;13.70;2.63;;;10.70;99.90;;;;;;5049216;28;20561;-50
2022/10/04 04:37:18;;;;;;;11.90;2.80;;;10.60;99.90;;;;;;5046759;28;20483;-51
2022/10/04 04:39:48;;;;;;;6.60;2.37;;;10.70;99.90;;;;;;5047144;28;20569;-50
2022/10/04 04:42:17;;;;;;;19.30;2.87;;;10.70;99.90;;;;;;5046361;28;20483;-51
2022/10/04 04:44:51;;;;;;;12.73;3.07;;;10.70;99.90;;;;;;5044861;28;20489;-50
2022/10/04 04:47:27;;;;;;;11.53;3.10;;;10.70;99.90;;;;;;5044625;28;20541;-50
2022/10/04 04:49:55;;;;;;;12.43;2.63;;;10.70;99.90;;;;;;5047346;28;20488;-50
2022/10/04 04:52:26;;;;;;;7.00;2.37;;;10.70;99.90;;;;;;5047874;28;20482;-50
2022/10/04 04:54:53;;;;;;;8.03;2.63;;;10.70;99.90;;;;;;5047662;28;20585;-50
2022/10/04 04:57:21;;;;;;;14.90;3.40;;;10.70;99.90;;;;;;5050488;28;20549;-51
2022/10/04 04:59:52;;;;;;;10.37;3.60;;;10.70;99.90;;;;;;5042737;28;20560;-51
2022/10/04 05:02:34;;;;;;;6.00;1.97;;;10.70;99.90;;;;;;5044855;28;20545;-51
2022/10/04 05:05:16;;;;;;;14.73;4.30;;;10.70;99.90;;;;;;5040775;28;20667;-51
2022/10/04 05:07:43;;;;;;;9.83;3.07;;;10.70;99.90;;;;;;5048711;28;20910;-51
2022/10/04 05:10:21;;;;;;;7.20;4.47;;;10.70;99.90;;;;;;5043083;28;20959;-51
2022/10/04 05:12:47;;;;;;;6.53;2.60;;;10.70;99.90;;;;;;5043672;28;22482;-50
2022/10/04 05:15:16;;;;;;;11.80;4.50;;;10.70;99.90;;;;;;5047650;28;20462;-51
2022/10/04 05:17:42;;;;;;;11.83;5.23;;;10.70;99.90;;;;;;5046883;28;20462;-51
2022/10/04 05:20:12;;;;;;;8.17;5.87;;;10.80;99.90;;;;;;5044647;28;20614;-51
2022/10/04 05:22:41;;;;;;;22.50;9.57;;;10.80;99.90;;;;;;5047570;28;20482;-51
2022/10/04 05:25:14;;;;;;;26.00;16.73;;;10.80;99.90;;;;;;5041859;28;21059;-49
2022/10/04 05:27:44;;;;;;;11.70;7.20;;;10.80;99.90;;;;;;5049488;28;20462;-50
2022/10/04 05:30:23;;;;;;;14.10;3.90;;;10.90;99.90;;;;;;5048643;28;20462;-50
2022/10/04 05:32:59;;;;;;;15.63;4.20;;;10.90;99.90;;;;;;5046704;28;20547;-50
2022/10/04 05:35:28;;;;;;;10.67;3.50;;;11.00;99.90;;;;;;5045401;28;21020;-50
2022/10/04 05:38:02;;;;;;;11.90;4.00;;;11.00;99.90;;;;;;5047948;28;20545;-49
2022/10/04 05:40:44;;;;;;;12.47;7.70;;;11.00;99.90;;;;;;5044103;28;20884;-52
2022/10/04 05:43:29;;;;;;;9.50;4.00;;;11.10;99.90;;;;;;5044378;28;20474;-50
2022/10/04 05:46:17;;;;;;;7.37;3.60;;;11.10;99.90;;;;;;5047237;28;20497;-50
2022/10/04 05:48:46;;;;;;;9.50;3.70;;;11.10;99.90;;;;;;5045201;28;20462;-50
2022/10/04 05:51:18;;;;;;;8.33;5.70;;;11.10;99.90;;;;;;5042730;28;20577;-50
2022/10/04 05:53:45;;;;;;;12.43;6.00;;;11.20;99.90;;;;;;5046536;28;20860;-50
2022/10/04 05:56:24;;;;;;;8.30;2.50;;;11.20;99.90;;;;;;5047034;28;20512;-49
2022/10/04 05:59:04;;;;;;;16.07;4.10;;;11.30;99.90;;;;;;5044406;28;20454;-50
2022/10/04 06:01:45;;;;;;;23.50;5.53;;;11.30;99.90;;;;;;5044811;28;20586;-49
2022/10/04 06:04:41;;;;;;;9.87;3.57;;;11.40;99.90;;;;;;5036261;28;20574;-49
2022/10/04 06:07:16;;;;;;;9.37;3.20;;;11.40;99.90;;;;;;5045273;28;20505;-49
2022/10/04 06:09:54;;;;;;;12.63;3.20;;;11.50;99.90;;;;;;5043074;28;20552;-50
2022/10/04 06:12:34;;;;;;;7.80;2.10;;;11.60;99.90;;;;;;5037714;28;20488;-48
2022/10/04 06:15:30;;;;;;;11.73;3.87;;;11.60;99.90;;;;;;5040201;28;20572;-49
2022/10/04 06:18:12;;;;;;;12.77;3.00;;;11.70;99.90;;;;;;5040221;28;20469;-48
2022/10/04 06:21:03;;;;;;;11.10;3.33;;;11.70;99.90;;;;;;5042329;28;20512;-49
2022/10/04 06:23:33;;;;;;;12.70;2.93;;;11.80;99.90;;;;;;5044602;28;20568;-49
2022/10/04 06:26:05;;;;;;;14.23;3.43;;;11.90;99.90;;;;;;5045967;28;21054;-49
2022/10/04 06:28:35;;;;;;;9.13;3.60;;;11.90;99.90;;;;;;5042211;28;20553;-49
2022/10/04 06:31:29;;;;;;;8.27;3.13;;;11.90;99.90;;;;;;5041687;28;20498;-49
2022/10/04 06:34:28;;;;;;;15.43;5.20;;;12.00;99.90;;;;;;5046316;28;20569;-49
2022/10/04 06:37:14;;;;;;;13.80;7.60;;;12.00;99.90;;;;;;5028879;28;20470;-49
2022/10/04 06:40:19;;;;;;;18.00;2.93;;;12.00;99.90;;;;;;5037967;28;20883;-49
2022/10/04 06:43:03;;;;;;;10.70;3.50;;;12.00;99.90;;;;;;5019636;28;20468;-49
2022/10/04 06:45:52;;;;;;;14.20;3.70;;;12.00;99.90;;;;;;5046527;28;20560;-49
2022/10/04 06:48:34;;;;;;;11.30;6.43;;;12.00;99.90;;;;;;5038374;28;20545;-50
2022/10/04 06:51:12;;;;;;;14.20;4.27;;;12.10;99.90;;;;;;5045847;28;20549;-49
2022/10/04 06:53:50;;;;;;;7.10;2.93;;;12.10;99.90;;;;;;5042511;28;20568;-49
2022/10/04 06:56:32;;;;;;;7.93;2.97;;;12.10;99.90;;;;;;5049008;28;20888;-50
2022/10/04 06:59:29;;;;;;;14.57;6.10;;;12.20;99.90;;;;;;5043867;28;20548;-50
2022/10/04 07:01:58;;;;;;;22.20;12.20;;;12.20;99.90;;;;;;5045063;28;20457;-49
2022/10/04 07:04:35;;;;;;;39.77;20.30;;;12.20;99.90;;;;;;5038615;28;20572;-50
2022/10/04 07:07:33;;;;;;;26.10;13.53;;;12.20;99.90;;;;;;5042908;28;20469;-49
2022/10/04 07:10:14;;;;;;;13.83;5.70;;;12.20;99.90;;;;;;5040545;28;20505;-50
2022/10/04 07:12:43;;;;;;;3.80;2.10;;;12.20;99.90;;;;;;5047584;28;20491;-50
2022/10/04 07:15:19;;;;;;;13.30;3.57;;;12.20;99.90;;;;;;5051812;28;20527;-50
2022/10/04 07:17:48;;;;;;;18.87;4.13;;;12.20;99.90;;;;;;5050916;28;20544;-50
2022/10/04 07:20:21;;;;;;;7.43;2.53;;;12.20;99.90;;;;;;5042507;28;20588;-50
2022/10/04 07:22:54;;;;;;;12.80;2.87;;;12.20;99.90;;;;;;5043031;28;20499;-50
2022/10/04 07:25:24;;;;;;;16.30;5.03;;;12.30;99.90;;;;;;5048605;28;20490;-50
2022/10/04 07:29:19;;;;;;;10.00;3.30;;;12.30;99.90;;;;;;5051700;28;20527;-49
2022/10/04 07:30:46;;;;;;;11.13;2.90;;;12.30;99.90;;;;;;5052556;28;20460;-50
2022/10/04 07:33:18;;;;;;;10.87;3.10;;;12.30;99.90;;;;;;5046275;28;20485;-50
2022/10/04 07:35:48;;;;;;;9.47;2.40;;;12.30;99.90;;;;;;5051647;28;20982;-50
2022/10/04 07:38:23;;;;;;;9.07;2.90;;;12.30;99.90;;;;;;5047405;28;20457;-49
2022/10/04 07:41:03;;;;;;;10.57;3.17;;;12.30;99.90;;;;;;5047476;28;20461;-50
2022/10/04 07:43:32;;;;;;;6.90;2.33;;;12.30;99.90;;;;;;5053030;28;20868;-50
2022/10/04 07:46:04;;;;;;;11.20;3.00;;;12.30;99.90;;;;;;5049730;28;20496;-50
2022/10/04 07:48:31;;;;;;;7.73;2.77;;;12.30;99.90;;;;;;5048283;28;20489;-50
2022/10/04 07:51:08;;;;;;;4.67;2.73;;;12.30;99.90;;;;;;5047289;28;21203;-49
2022/10/04 07:53:45;;;;;;;10.87;3.37;;;12.40;99.90;;;;;;5049084;28;20556;-50
2022/10/04 07:56:17;;;;;;;11.20;3.20;;;12.40;99.90;;;;;;5046024;28;20537;-50
2022/10/04 07:58:51;;;;;;;6.00;1.97;;;12.40;99.90;;;;;;5045873;28;20462;-50
2022/10/04 08:01:26;;;;;;;11.53;2.83;;;12.40;99.90;;;;;;5049041;28;20544;-50
2022/10/04 08:04:10;;;;;;;10.07;2.93;;;12.40;99.90;;;;;;5047087;28;21087;-50
2022/10/04 08:06:42;;;;;;;14.57;3.10;;;12.40;99.90;;;;;;5050466;28;20541;-48
2022/10/04 08:09:46;;;;;;;12.57;3.03;;;12.50;99.90;;;;;;5046314;28;20548;-49
2022/10/04 08:12:20;;;;;;;11.33;3.30;;;12.60;99.90;;;;;;5044449;28;20556;-50
2022/10/04 08:14:54;;;;;;;8.40;4.00;;;12.60;99.90;;;;;;5046623;28;20474;-49
2022/10/04 08:17:41;;;;;;;7.67;3.80;;;12.70;99.90;;;;;;5047109;28;20519;-50
2022/10/04 08:20:25;;;;;;;8.27;3.80;;;12.80;99.90;;;;;;5050719;28;20465;-49
2022/10/04 08:23:01;;;;;;;16.83;4.10;;;12.90;99.90;;;;;;5052335;28;20446;-50
2022/10/04 08:25:41;;;;;;;7.97;3.90;;;12.90;26.40;;;;;;5047631;28;20493;-50
2022/10/04 08:31:16;;;;;;;15.57;5.50;;;13.00;56.70;;;;;;5048207;28;20504;-49
2022/10/04 08:33:54;;;;;;;4.90;3.90;;;13.10;60.20;;;;;;5045040;28;20564;-49
2022/10/04 08:36:37;;;;;;;6.60;3.57;;;13.20;62.80;;;;;;5051416;28;20548;-50
2022/10/04 08:39:17;;;;;;;7.80;4.43;;;13.30;63.70;;;;;;5045054;28;20550;-49
2022/10/04 08:42:09;;;;;;;8.20;3.40;;;13.40;69.10;;;;;;5047791;28;20457;-49
2022/10/04 08:45:10;;;;;;;5.13;3.80;;;13.40;83.70;;;;;;5039969;28;20564;-50
2022/10/04 08:48:23;;;;;;;6.83;3.40;;;13.40;88.00;;;;;;5046017;28;20470;-50
2022/10/04 08:51:29;;;;;;;8.30;3.60;;;13.60;77.00;;;;;;5045958;28;20434;-49
2022/10/04 08:54:22;;;;;;;16.00;3.50;;;13.60;89.50;;;;;;5035657;28;20585;-49
2022/10/04 08:57:02;;;;;;;9.30;3.97;;;13.60;87.60;;;;;;5047026;28;20863;-50
2022/10/04 08:59:51;;;;;;;8.70;3.40;;;13.70;88.10;;;;;;5049374;28;20516;-49
2022/10/04 09:02:50;;;;;;;7.73;3.80;;;13.70;89.20;;;;;;5026633;28;20500;-49
2022/10/04 09:05:32;;;;;;;11.07;4.70;;;13.70;91.90;;;;;;5016047;28;20492;-49
2022/10/04 09:08:19;;;;;;;10.00;3.83;;;13.80;92.40;;;;;;5051871;28;20797;-50
2022/10/04 09:10:59;;;;;;;9.17;4.10;;;13.80;91.80;;;;;;5052887;28;20529;-50
2022/10/04 09:13:44;;;;;;;6.73;4.20;;;13.80;93.00;;;;;;5042859;28;20930;-50
2022/10/04 09:16:24;;;;;;;8.23;4.40;;;13.80;97.10;;;;;;5042328;28;20560;-49
2022/10/04 09:19:06;;;;;;;10.97;3.90;;;14.00;95.20;;;;;;5042073;28;20553;-49
2022/10/04 09:21:49;;;;;;;8.33;3.50;;;14.10;99.90;;;;;;5048620;28;20489;-49
2022/10/04 09:25:00;;;;;;;7.40;3.77;;;14.10;99.90;;;;;;5048677;28;20474;-50
2022/10/04 09:27:45;;;;;;;7.73;3.73;;;14.20;99.90;;;;;;5050392;28;20489;-50
2022/10/04 09:30:18;;;;;;;9.93;3.30;;;14.20;99.90;;;;;;5043561;28;20549;-50
2022/10/04 09:33:01;;;;;;;5.23;3.13;;;14.20;99.90;;;;;;5046133;28;21021;-50
2022/10/04 09:36:04;;;;;;;6.90;2.73;;;14.50;99.90;;;;;;5047716;28;20882;-50
2022/10/04 09:38:59;;;;;;;6.03;2.83;;;14.40;99.90;;;;;;5051127;28;20541;-50
2022/10/04 09:41:39;;;;;;;5.30;3.47;;;14.50;99.90;;;;;;5048901;28;20549;-49
2022/10/04 09:44:34;;;;;;;5.70;2.87;;;14.40;99.90;;;;;;5046025;28;20556;-49
2022/10/04 09:47:18;;;;;;;6.90;3.20;;;14.50;99.90;;;;;;5051115;28;20925;-50
2022/10/04 09:50:12;;;;;;;7.77;3.00;;;14.60;99.90;;;;;;5048445;28;20864;-50
2022/10/04 09:52:45;;;;;;;6.97;2.67;;;14.60;1.40;;;;;;5044087;28;20458;-49
2022/10/04 09:55:42;;;;;;;6.50;3.00;;;15.00;99.90;;;;;;5049357;28;20505;-49
2022/10/04 09:58:42;;;;;;;8.80;2.73;;;15.20;99.90;;;;;;5050819;28;20462;-50
2022/10/04 10:01:14;;;;;;;7.57;2.80;;;15.30;99.90;;;;;;5043225;28;20464;-49
2022/10/04 10:04:09;;;;;;;7.40;2.57;;;15.40;99.90;;;;;;5048068;28;20505;-49
2022/10/04 10:06:55;;;;;;;7.93;2.80;;;15.40;99.90;;;;;;5043490;28;20549;-49
2022/10/04 10:15:30;;;;;;;2.83;2.53;;;15.10;99.90;;;;;;5048269;28;20484;-50
2022/10/04 10:18:08;;;;;;;6.60;2.40;;;14.90;99.90;;;;;;5046809;28;20548;-50
2022/10/04 10:21:11;;;;;;;2.87;2.07;;;14.90;99.90;;;;;;5046168;28;20480;-50
2022/10/04 10:24:08;;;;;;;4.63;2.33;;;14.80;99.90;;;;;;5035031;28;20473;-50
2022/10/04 10:27:14;;;;;;;5.37;2.43;;;14.80;99.90;;;;;;5050108;28;20916;-49
2022/10/04 10:29:59;;;;;;;5.27;2.73;;;14.90;99.90;;;;;;5040231;28;20911;-49
2022/10/04 10:32:38;;;;;;;9.07;2.23;;;14.90;99.90;;;;;;5047111;28;20460;-49
2022/10/04 10:35:25;;;;;;;5.80;2.80;;;14.90;99.90;;;;;;5047405;28;20489;-50
2022/10/04 10:38:10;;;;;;;6.97;2.20;;;15.00;99.90;;;;;;5037858;28;20908;-49
2022/10/04 10:40:47;;;;;;;6.70;3.20;;;15.00;99.90;;;;;;5045200;28;20532;-50
2022/10/04 10:43:36;;;;;;;5.60;2.53;;;15.10;99.90;;;;;;5042779;28;20884;-50
2022/10/04 10:46:14;;;;;;;5.93;3.20;;;15.20;99.90;;;;;;5045705;28;20868;-49
2022/10/04 10:49:25;;;;;;;7.20;2.70;;;15.30;99.90;;;;;;5054123;28;20468;-49
2022/10/04 10:52:19;;;;;;;4.97;3.20;;;15.30;99.90;;;;;;5013040;28;20901;-49
2022/10/04 10:55:06;;;;;;;5.80;2.90;;;15.30;99.90;;;;;;5004871;28;20487;-49
2022/10/04 10:57:57;;;;;;;5.87;2.17;;;15.30;99.90;;;;;;5038561;28;20453;-50
2022/10/04 11:00:26;;;;;;;6.63;2.70;;;15.30;99.90;;;;;;5053153;28;21519;-50
2022/10/04 11:03:28;;;;;;;5.40;2.90;;;15.40;99.90;;;;;;5052643;28;20548;-50
2022/10/04 11:06:14;;;;;;;9.70;3.93;;;15.50;99.90;;;;;;5050470;28;20488;-50
2022/10/04 11:09:21;;;;;;;5.93;3.17;;;15.50;99.90;;;;;;5047533;28;20491;-50
2022/10/04 11:12:18;;;;;;;6.00;3.47;;;15.50;99.90;;;;;;5047514;28;20540;-50
2022/10/04 11:14:58;;;;;;;7.90;3.03;;;15.50;99.90;;;;;;5051513;28;20585;-49
2022/10/04 11:17:40;;;;;;;5.80;2.73;;;15.50;99.90;;;;;;5051416;28;20553;-49
2022/10/04 11:20:30;;;;;;;7.60;2.73;;;15.50;99.90;;;;;;5053646;28;20516;-50
2022/10/04 11:23:47;;;;;;;6.90;3.87;;;15.60;99.90;;;;;;5051389;28;20464;-49
2022/10/04 11:26:58;;;;;;;4.27;2.20;;;15.60;99.90;;;;;;5051523;28;20465;-50
2022/10/04 11:29:40;;;;;;;14.03;2.63;;;15.60;99.90;;;;;;5047823;28;20497;-50
2022/10/04 11:33:06;;;;;;;6.43;3.23;;;15.60;99.90;;;;;;5053116;28;20537;-50
2022/10/04 11:35:53;;;;;;;6.83;2.60;;;15.50;99.90;;;;;;5052814;28;20490;-49
2022/10/04 11:38:32;;;;;;;9.17;3.50;;;15.50;99.90;;;;;;5046720;28;20553;-50
2022/10/04 11:41:15;;;;;;;9.10;3.83;;;15.50;99.90;;;;;;5046422;28;20468;-49
2022/10/04 11:44:00;;;;;;;7.93;2.70;;;15.50;99.90;;;;;;5045139;28;20480;-50
2022/10/04 11:46:37;;;;;;;8.50;3.63;;;15.50;99.90;;;;;;5050206;28;21019;-50
2022/10/04 11:49:17;;;;;;;8.20;2.83;;;15.60;99.90;;;;;;5049101;28;20544;-50
2022/10/04 11:52:08;;;;;;;10.07;3.00;;;15.50;99.90;;;;;;5047662;28;20497;-50
2022/10/04 11:55:05;;;;;;;11.43;3.17;;;15.60;99.90;;;;;;5049263;28;20523;-49
2022/10/04 11:57:39;;;;;;;8.37;3.00;;;15.60;99.90;;;;;;5053720;28;20538;-49
2022/10/04 12:00:14;;;;;;;8.03;2.63;;;15.60;99.90;;;;;;5052984;28;20527;-50
2022/10/04 12:02:56;;;;;;;15.30;3.13;;;15.60;99.90;;;;;;5051253;28;20464;-50
2022/10/04 12:06:02;;;;;;;9.23;2.60;;;15.60;99.90;;;;;;5050427;28;20589;-50
2022/10/04 12:08:39;;;;;;;8.37;3.10;;;15.70;99.90;;;;;;5052804;28;20569;-50
2022/10/04 12:14:39;;;;;;;17.47;3.10;;;16.00;99.90;;;;;;5050822;28;20524;-50
2022/10/04 12:17:37;;;;;;;7.67;2.70;;;16.00;99.90;;;;;;5053923;28;20481;-50
2022/10/04 12:20:47;;;;;;;7.77;2.83;;;16.00;99.90;;;;;;5043684;28;20942;-50
2022/10/04 12:23:37;;;;;;;10.30;2.97;;;15.90;99.90;;;;;;4992287;28;21045;-49
2022/10/04 12:26:44;;;;;;;10.83;2.23;;;15.90;99.90;;;;;;5046272;28;20549;-49
2022/10/04 12:29:36;;;;;;;9.13;2.17;;;15.80;99.90;;;;;;5050045;28;20454;-49
2022/10/04 12:32:09;;;;;;;6.80;2.10;;;15.80;99.90;;;;;;5050137;28;20473;-50
2022/10/04 12:34:46;;;;;;;10.23;2.57;;;15.80;99.90;;;;;;5046754;28;20493;-50
2022/10/04 12:37:22;;;;;;;4.83;1.93;;;15.80;99.90;;;;;;5048396;28;20561;-50
2022/10/04 12:40:07;;;;;;;13.63;3.23;;;15.80;99.90;;;;;;5050480;28;20533;-50
2022/10/04 12:42:45;;;;;;;8.20;2.37;;;15.80;99.90;;;;;;5053016;28;20445;-49
2022/10/04 12:45:31;;;;;;;14.33;2.30;;;15.90;99.90;;;;;;5048664;28;20545;-50
2022/10/04 12:48:13;;;;;;;15.77;2.43;;;15.90;99.90;;;;;;5041246;28;20541;-49
2022/10/04 12:50:50;;;;;;;7.37;2.83;;;16.00;99.90;;;;;;5043245;28;20540;-50
2022/10/04 12:53:30;;;;;;;7.00;2.83;;;16.00;99.90;;;;;;5045538;28;20573;-50
2022/10/04 12:56:07;;;;;;;6.47;2.00;;;16.10;99.90;;;;;;5045701;28;20451;-50
2022/10/04 12:58:51;;;;;;;5.63;1.93;;;16.00;99.90;;;;;;5043445;28;20446;-49
2022/10/04 13:01:25;;;;;;;9.90;2.93;;;16.00;99.90;;;;;;5050423;28;20558;-50
2022/10/04 13:04:09;;;;;;;5.70;1.93;;;16.10;99.90;;;;;;5049958;28;20994;-49
2022/10/04 13:06:48;;;;;;;8.47;2.13;;;16.10;99.90;;;;;;5045301;28;20536;-49
2022/10/04 13:09:20;;;;;;;3.70;1.53;;;16.10;99.90;;;;;;5050295;28;20552;-50
2022/10/04 13:12:13;;;;;;;6.27;2.50;;;16.20;99.90;;;;;;5047223;28;20537;-49
2022/10/04 13:15:05;;;;;;;12.83;2.80;;;16.20;99.90;;;;;;5037754;28;20543;-50
2022/10/04 13:17:40;;;;;;;5.53;2.30;;;16.20;99.90;;;;;;5050527;28;20469;-50
2022/10/04 13:20:29;;;;;;;7.73;2.10;;;16.30;99.90;;;;;;5052333;28;20970;-49
2022/10/04 13:23:01;;;;;;;4.90;2.20;;;16.40;99.90;;;;;;5040103;28;20457;-50
2022/10/04 13:25:51;;;;;;;7.80;2.20;;;16.40;99.90;;;;;;5032776;28;20526;-49
2022/10/04 13:28:28;;;;;;;5.80;2.73;;;16.40;99.90;;;;;;5050019;28;20524;-50
2022/10/04 13:31:03;;;;;;;8.00;2.10;;;16.40;99.90;;;;;;5052151;28;20887;-49
2022/10/04 13:33:38;;;;;;;9.00;2.17;;;16.30;99.90;;;;;;5051816;28;20477;-49
2022/10/04 13:36:10;;;;;;;7.90;2.00;;;16.30;99.90;;;;;;5044862;28;20536;-49
2022/10/04 13:39:01;;;;;;;11.47;1.80;;;16.30;99.90;;;;;;5043365;28;20474;-50
2022/10/04 13:41:44;;;;;;;11.33;1.90;;;16.30;99.90;;;;;;5032008;28;20980;-50
2022/10/04 13:44:33;;;;;;;7.10;2.47;;;16.30;99.90;;;;;;5032344;28;21036;-50
2022/10/04 13:47:28;;;;;;;8.60;1.90;;;16.40;99.90;;;;;;5032393;28;20458;-50
2022/10/04 13:50:19;;;;;;;3.43;1.50;;;16.50;99.90;;;;;;5029387;28;20474;-50
2022/10/04 13:58:45;;;;;;;3.73;1.93;;;16.80;93.60;;;;;;5051202;28;20434;-49
2022/10/04 14:01:42;;;;;;;9.83;2.27;;;16.80;29.80;;;;;;5047321;28;20474;-49
2022/10/04 14:04:28;;;;;;;7.00;2.27;;;16.80;34.00;;;;;;5049739;28;20569;-49